Time;durP1;ratioP1;P1;durP2;ratioP2;P2;SDS_P1;SDS_P2;PMS_P1;PMS_P2;Temp;Humidity;BMP_temperature;BMP_pressure;BME280_temperature;BME280_humidity;BME280_pressure;Samples;Min_cycle;Max_cycle;Signal;HPM_P1;HPM_P2
2023/04/04 00:01:15;;;;;;;6.40;2.60;;;;;;;3.23;63.94;102861.84;5070889;28;20027;-87
2023/04/04 00:03:41;;;;;;;3.78;2.70;;;;;;;3.28;64.23;102857.63;5080382;28;20119;-87
2023/04/04 00:06:06;;;;;;;9.48;2.80;;;;;;;3.29;63.81;102868.09;5083188;28;20157;-86
2023/04/04 00:08:32;;;;;;;4.90;2.67;;;;;;;3.31;64.22;102873.34;5076377;28;20042;-86
2023/04/04 00:10:59;;;;;;;4.53;2.55;;;;;;;3.28;63.23;102870.69;5067138;28;20055;-87
2023/04/04 00:13:25;;;;;;;6.15;2.75;;;;;;;3.25;62.91;102871.47;5079201;28;20439;-87
2023/04/04 00:15:51;;;;;;;3.80;2.45;;;;;;;3.19;62.90;102870.47;5078595;28;20035;-87
2023/04/04 00:18:16;;;;;;;5.45;2.67;;;;;;;3.26;63.28;102868.03;5071369;28;20679;-87
2023/04/04 00:20:42;;;;;;;5.47;3.00;;;;;;;3.32;62.96;102877.75;5072952;28;20027;-87
2023/04/04 00:23:10;;;;;;;5.60;2.72;;;;;;;3.38;63.35;102877.00;5072868;28;20029;-87
2023/04/04 00:25:35;;;;;;;5.45;2.95;;;;;;;3.37;62.71;102881.34;5071373;28;20147;-86
2023/04/04 00:28:01;;;;;;;7.25;3.30;;;;;;;3.32;63.15;102877.75;5075792;28;20035;-87
2023/04/04 00:30:27;;;;;;;4.70;2.63;;;;;;;3.25;62.37;102870.59;5072765;28;20100;-88
2023/04/04 00:32:52;;;;;;;5.78;3.13;;;;;;;3.10;63.37;102860.69;5071057;28;20025;-87
2023/04/04 00:35:17;;;;;;;2.95;2.55;;;;;;;3.02;61.57;102863.09;5071043;28;20028;-85
2023/04/04 00:37:43;;;;;;;3.70;2.60;;;;;;;2.89;63.01;102873.22;5073951;28;20057;-87
2023/04/04 00:40:08;;;;;;;3.58;2.65;;;;;;;2.91;63.66;102880.28;5082140;28;20036;-87
2023/04/04 00:42:34;;;;;;;6.32;2.72;;;;;;;2.88;62.96;102874.97;5076406;28;20058;-86
2023/04/04 00:44:59;;;;;;;5.47;2.85;;;;;;;2.85;62.71;102874.03;5088307;28;20024;-87
2023/04/04 00:47:29;;;;;;;6.40;2.60;;;;;;;2.75;64.37;102883.34;5080619;28;20026;-87
2023/04/04 00:49:55;;;;;;;4.40;2.70;;;;;;;2.57;65.03;102889.00;5069600;28;20396;-87
2023/04/04 00:52:20;;;;;;;4.93;2.92;;;;;;;2.73;64.35;102878.09;5071131;28;20020;-87
2023/04/04 00:54:46;;;;;;;3.15;2.67;;;;;;;2.71;65.61;102876.31;5074544;28;20025;-87
2023/04/04 00:57:11;;;;;;;3.88;2.72;;;;;;;2.60;64.51;102880.34;5072359;28;20032;-87
2023/04/04 00:59:37;;;;;;;5.75;3.20;;;;;;;2.54;66.24;102868.03;5078092;28;20685;-88
2023/04/04 01:02:03;;;;;;;3.67;2.78;;;;;;;2.57;64.38;102883.78;5075162;28;20047;-88
2023/04/04 01:04:28;;;;;;;6.20;3.10;;;;;;;2.51;66.68;102884.47;5087194;28;20446;-88
2023/04/04 01:06:55;;;;;;;3.78;2.53;;;;;;;2.47;66.90;102882.66;5072563;28;20507;-87
2023/04/04 01:09:21;;;;;;;4.05;2.47;;;;;;;2.47;67.19;102884.38;5078032;28;20376;-88
2023/04/04 01:11:47;;;;;;;3.63;2.63;;;;;;;2.54;64.09;102888.91;5079188;28;20059;-87
2023/04/04 01:14:12;;;;;;;4.80;2.50;;;;;;;2.45;65.17;102879.13;5080409;28;20512;-87
2023/04/04 01:16:38;;;;;;;3.70;2.50;;;;;;;2.42;66.48;102871.19;5083572;28;20023;-87
2023/04/04 01:19:07;;;;;;;4.97;3.42;;;;;;;2.50;65.68;102874.00;5103030;27;20036;-87
2023/04/04 01:21:33;;;;;;;5.93;2.97;;;;;;;2.42;64.47;102868.59;5084244;28;20036;-87
2023/04/04 01:24:00;;;;;;;6.07;2.85;;;;;;;2.31;64.46;102864.81;5091357;28;20499;-88
2023/04/04 01:26:30;;;;;;;6.80;3.05;;;;;;;2.21;64.51;102863.69;5080106;28;20040;-86
2023/04/04 01:28:57;;;;;;;4.90;3.00;;;;;;;2.18;64.55;102849.69;5085541;28;20052;-87
2023/04/04 01:31:39;;;;;;;4.90;2.78;;;;;;;2.24;64.33;102855.09;5084261;28;20904;-85
2023/04/04 01:34:32;;;;;;;6.28;3.28;;;;;;;2.19;63.80;102849.75;5085029;28;20037;-87
2023/04/04 01:37:30;;;;;;;6.43;2.88;;;;;;;2.17;63.52;102858.34;5088204;28;20089;-88
2023/04/04 01:40:07;;;;;;;5.07;2.88;;;;;;;2.03;64.36;102853.63;5089801;28;20040;-88
2023/04/04 01:42:33;;;;;;;5.90;2.90;;;;;;;1.98;63.59;102850.03;5077416;28;20024;-88
2023/04/04 01:44:59;;;;;;;4.70;2.47;;;;;;;1.87;64.03;102840.16;5086206;28;20024;-87
2023/04/04 01:47:24;;;;;;;3.58;3.05;;;;;;;1.71;64.36;102841.44;5101115;27;20044;-87
2023/04/04 01:49:49;;;;;;;5.43;3.03;;;;;;;1.73;66.19;102853.69;5076514;28;20028;-87
2023/04/04 01:52:15;;;;;;;6.88;2.97;;;;;;;1.58;64.74;102836.69;5081098;28;20016;-88
2023/04/04 01:54:41;;;;;;;5.05;3.05;;;;;;;1.57;65.35;102851.47;5084214;28;20103;-90
2023/04/04 01:57:06;;;;;;;5.28;3.10;;;;;;;1.54;65.00;102846.19;5075745;28;20037;-89
2023/04/04 01:59:31;;;;;;;4.25;3.10;;;;;;;1.53;65.74;102841.78;5074614;28;20029;-88
2023/04/04 02:01:57;;;;;;;6.10;3.03;;;;;;;1.49;65.16;102837.31;5079221;28;20039;-90
2023/04/04 02:04:22;;;;;;;6.82;3.30;;;;;;;1.43;64.70;102843.22;5076673;28;20160;-88
2023/04/04 02:06:47;;;;;;;4.68;2.53;;;;;;;1.48;65.79;102845.97;5090749;28;20043;-89
2023/04/04 02:09:13;;;;;;;4.47;2.78;;;;;;;1.43;66.48;102832.81;5075790;28;20024;-89
2023/04/04 02:11:38;;;;;;;6.95;2.70;;;;;;;1.49;65.40;102847.72;5077976;28;20040;-89
2023/04/04 02:14:04;;;;;;;5.35;2.95;;;;;;;1.44;65.97;102847.59;5085464;28;20020;-90
2023/04/04 02:16:29;;;;;;;6.38;3.00;;;;;;;1.38;65.67;102838.72;5090064;28;20101;-88
2023/04/04 02:18:54;;;;;;;4.13;2.70;;;;;;;1.47;65.94;102839.88;5095336;27;20020;-88
2023/04/04 02:21:20;;;;;;;7.25;3.05;;;;;;;1.51;63.84;102851.28;5082506;28;20036;-89
2023/04/04 02:23:45;;;;;;;4.07;3.03;;;;;;;1.42;66.74;102851.91;5084972;28;20023;-88
2023/04/04 02:26:10;;;;;;;4.68;2.90;;;;;;;1.30;66.50;102848.91;5085015;28;20054;-88
2023/04/04 02:28:36;;;;;;;7.22;3.22;;;;;;;1.39;65.58;102859.63;5077809;28;20064;-89
2023/04/04 02:31:01;;;;;;;11.43;3.42;;;;;;;1.36;65.59;102862.16;5083213;28;20423;-89
2023/04/04 02:33:28;;;;;;;6.53;3.42;;;;;;;1.27;66.73;102849.72;5086744;28;20027;-87
2023/04/04 02:35:57;;;;;;;3.90;3.15;;;;;;;1.44;67.07;102865.84;5086806;28;20039;-89
2023/04/04 02:38:23;;;;;;;7.28;3.08;;;;;;;1.61;66.87;102863.75;5082564;28;20522;-89
2023/04/04 02:40:48;;;;;;;4.65;3.30;;;;;;;1.55;67.22;102860.09;5077805;28;20032;-89
2023/04/04 02:43:13;;;;;;;7.45;3.05;;;;;;;1.84;66.36;102860.91;5083171;28;20426;-90
2023/04/04 02:45:39;;;;;;;6.47;2.97;;;;;;;1.64;67.04;102855.16;5087694;28;20024;-90
2023/04/04 02:48:06;;;;;;;4.30;2.72;;;;;;;1.61;67.43;102860.25;5080854;28;20042;-88
2023/04/04 02:50:32;;;;;;;4.70;2.75;;;;;;;1.52;66.83;102853.94;5083354;28;20391;-88
2023/04/04 02:53:01;;;;;;;5.40;3.33;;;;;;;1.43;65.44;102850.16;5083554;28;20030;-89
2023/04/04 02:55:26;;;;;;;10.75;3.30;;;;;;;1.28;65.70;102853.22;5078868;28;20125;-89
2023/04/04 02:57:51;;;;;;;3.58;2.45;;;;;;;1.12;67.19;102835.31;5092977;28;20565;-90
2023/04/04 03:00:17;;;;;;;4.25;2.88;;;;;;;1.07;68.14;102842.13;5092057;28;20371;-89
2023/04/04 03:02:42;;;;;;;6.32;3.00;;;;;;;1.09;68.06;102843.06;5085386;28;20041;-88
2023/04/04 03:05:08;;;;;;;3.92;2.95;;;;;;;1.25;68.10;102840.94;5089348;28;20028;-90
2023/04/04 03:07:33;;;;;;;4.93;3.13;;;;;;;1.33;67.57;102846.41;5086336;28;20032;-90
2023/04/04 03:09:58;;;;;;;6.85;3.40;;;;;;;1.45;68.09;102848.50;5080644;28;20081;-89
2023/04/04 03:12:23;;;;;;;6.78;3.03;;;;;;;1.51;68.12;102841.75;5077069;28;20040;-89
2023/04/04 03:14:49;;;;;;;7.57;2.97;;;;;;;1.51;66.62;102839.13;5088220;28;20024;-89
2023/04/04 03:17:14;;;;;;;5.38;2.95;;;;;;;1.47;66.78;102839.00;5081463;28;20028;-90
2023/04/04 03:19:39;;;;;;;4.82;2.97;;;;;;;1.41;66.01;102854.47;5083141;28;20036;-90
2023/04/04 03:22:05;;;;;;;8.88;3.33;;;;;;;1.31;66.90;102847.22;5080995;28;20024;-90
2023/04/04 03:24:31;;;;;;;5.28;2.80;;;;;;;1.42;67.23;102851.00;5090252;28;20544;-89
2023/04/04 03:26:58;;;;;;;7.25;3.63;;;;;;;1.38;66.47;102841.34;5083322;28;20034;-89
2023/04/04 03:29:23;;;;;;;5.93;3.60;;;;;;;1.43;65.86;102848.44;5078688;28;20048;-89
2023/04/04 03:31:48;;;;;;;5.80;3.60;;;;;;;1.42;67.35;102844.06;5073386;28;20067;-88
2023/04/04 03:34:14;;;;;;;4.78;2.85;;;;;;;1.30;67.86;102846.31;5093209;28;20043;-89
2023/04/04 03:36:40;;;;;;;5.13;3.45;;;;;;;1.14;67.95;102839.75;5084101;28;20474;-89
2023/04/04 03:39:05;;;;;;;4.00;2.90;;;;;;;1.11;67.96;102849.19;5083236;28;20036;-89
2023/04/04 03:41:30;;;;;;;6.18;3.30;;;;;;;1.01;67.96;102835.00;5072359;28;20318;-89
2023/04/04 03:43:56;;;;;;;5.70;3.10;;;;;;;0.90;68.09;102834.66;5081295;28;20089;-89
2023/04/04 03:46:21;;;;;;;6.95;2.92;;;;;;;0.82;66.94;102824.84;5083678;28;20363;-89
2023/04/04 03:48:46;;;;;;;6.07;3.25;;;;;;;0.76;66.85;102820.34;5083415;28;20031;-89
2023/04/04 03:51:12;;;;;;;8.80;3.60;;;;;;;0.75;68.92;102813.38;5084926;28;20028;-89
2023/04/04 03:53:37;;;;;;;8.27;4.35;;;;;;;0.75;68.91;102818.56;5069836;28;20035;-89
2023/04/04 03:56:03;;;;;;;5.82;3.47;;;;;;;0.86;67.37;102818.91;5070591;28;20028;-89
2023/04/04 03:58:29;;;;;;;6.63;3.88;;;;;;;0.81;66.92;102808.34;5071243;28;20031;-89
2023/04/04 04:00:54;;;;;;;7.10;3.53;;;;;;;0.83;67.58;102822.28;5073021;28;20035;-90
2023/04/04 04:03:20;;;;;;;4.47;2.72;;;;;;;0.73;67.20;102815.00;5076229;28;20024;-88
2023/04/04 04:05:46;;;;;;;6.15;3.13;;;;;;;0.71;66.66;102820.19;5084432;28;20036;-89
2023/04/04 04:08:11;;;;;;;8.10;3.28;;;;;;;0.64;66.31;102818.19;5070683;28;20485;-88
2023/04/04 04:10:37;;;;;;;6.68;4.00;;;;;;;0.52;67.21;102825.63;5068806;28;20032;-88
2023/04/04 04:13:02;;;;;;;5.60;3.58;;;;;;;0.39;67.70;102826.94;5072315;28;20020;-88
2023/04/04 04:15:27;;;;;;;8.73;4.07;;;;;;;0.52;68.78;102828.22;5070797;28;20051;-89
2023/04/04 04:17:52;;;;;;;10.93;3.95;;;;;;;0.57;66.91;102820.56;5068138;28;20031;-87
2023/04/04 04:20:18;;;;;;;7.95;3.72;;;;;;;0.47;66.31;102824.59;5080460;28;20031;-89
2023/04/04 04:22:46;;;;;;;5.38;3.10;;;;;;;0.42;67.29;102823.53;5073534;28;20027;-88
2023/04/04 04:25:13;;;;;;;6.72;3.78;;;;;;;0.42;69.01;102829.66;5077953;28;20483;-88
2023/04/04 04:27:39;;;;;;;9.00;3.28;;;;;;;0.34;67.42;102822.41;5085336;28;20121;-89
2023/04/04 04:30:05;;;;;;;3.72;2.80;;;;;;;0.23;67.92;102822.94;5073904;28;20020;-88
2023/04/04 04:32:30;;;;;;;5.97;3.53;;;;;;;0.13;67.76;102807.81;5078115;28;20104;-88
2023/04/04 04:34:55;;;;;;;5.35;2.72;;;;;;;0.13;67.76;102815.63;5083539;28;20098;-88
2023/04/04 04:37:21;;;;;;;6.30;3.08;;;;;;;0.04;67.17;102809.22;5078008;28;20039;-89
2023/04/04 04:39:47;;;;;;;4.78;3.35;;;;;;;0.07;67.52;102831.03;5078928;28;20046;-89
2023/04/04 04:42:12;;;;;;;7.43;3.92;;;;;;;0.09;67.99;102823.28;5079880;28;20091;-88
2023/04/04 04:44:37;;;;;;;3.67;3.28;;;;;;;-0.03;68.51;102823.75;5079561;28;20282;-88
2023/04/04 04:47:03;;;;;;;6.95;3.75;;;;;;;-0.10;69.66;102821.75;5082832;28;20027;-88
2023/04/04 04:49:28;;;;;;;6.00;3.95;;;;;;;-0.15;70.41;102815.50;5083332;28;20024;-89
2023/04/04 04:51:53;;;;;;;6.03;3.80;;;;;;;0.07;70.06;102817.16;5074478;28;20429;-88
2023/04/04 04:54:18;;;;;;;5.90;3.88;;;;;;;0.08;68.42;102831.91;5084173;28;20032;-88
2023/04/04 04:56:44;;;;;;;5.47;3.97;;;;;;;-0.06;67.52;102834.91;5078571;28;20047;-89
2023/04/04 04:59:10;;;;;;;6.90;4.70;;;;;;;-0.08;69.34;102835.69;5071560;28;20086;-88
2023/04/04 05:01:35;;;;;;;7.60;3.75;;;;;;;-0.26;70.89;102839.41;5089999;28;20024;-89
2023/04/04 05:04:01;;;;;;;5.95;3.88;;;;;;;0.00;70.10;102844.66;5082109;28;20073;-88
2023/04/04 05:06:26;;;;;;;5.97;4.00;;;;;;;0.10;70.72;102845.88;5083609;28;20031;-88
2023/04/04 05:08:51;;;;;;;5.85;3.88;;;;;;;-0.05;69.93;102852.31;5076138;28;20099;-87
2023/04/04 05:11:16;;;;;;;9.63;4.45;;;;;;;-0.04;71.04;102860.97;5083350;28;20046;-88
2023/04/04 05:13:42;;;;;;;7.25;4.00;;;;;;;0.03;71.32;102854.28;5076299;28;20028;-88
2023/04/04 05:16:07;;;;;;;11.88;4.50;;;;;;;0.02;69.49;102855.09;5077922;28;20059;-88
2023/04/04 05:18:32;;;;;;;8.38;3.60;;;;;;;-0.02;71.75;102857.59;5094342;28;20046;-87
2023/04/04 05:20:58;;;;;;;7.50;3.83;;;;;;;-0.04;72.77;102859.25;5114323;28;20020;-87
2023/04/04 05:23:23;;;;;;;8.20;4.07;;;;;;;-0.15;70.28;102844.09;5114049;28;20195;-86
2023/04/04 05:25:52;;;;;;;4.70;3.97;;;;;;;-0.09;72.76;102859.94;5102898;28;20103;-87
2023/04/04 05:28:19;;;;;;;6.72;3.50;;;;;;;-0.18;71.63;102847.47;5100894;28;20016;-86
2023/04/04 05:30:44;;;;;;;7.13;4.43;;;;;;;-0.10;71.38;102855.53;5105295;28;20036;-87
2023/04/04 05:33:10;;;;;;;6.90;4.20;;;;;;;-0.04;72.29;102853.19;5096251;28;20191;-87
2023/04/04 05:35:35;;;;;;;5.13;4.25;;;;;;;0.05;73.28;102850.91;5104250;28;20051;-87
2023/04/04 05:38:01;;;;;;;5.38;4.22;;;;;;;0.14;73.03;102861.63;5102135;28;20074;-87
2023/04/04 05:40:27;;;;;;;8.45;4.32;;;;;;;0.15;72.68;102846.91;5100839;28;20043;-87
2023/04/04 05:42:56;;;;;;;4.47;3.70;;;;;;;0.22;73.27;102867.97;5094950;28;20092;-87
2023/04/04 05:45:22;;;;;;;6.57;3.97;;;;;;;0.24;71.83;102855.91;5095503;28;20081;-86
2023/04/04 05:47:47;;;;;;;7.75;4.20;;;;;;;0.48;72.69;102868.00;5099539;28;20035;-87
2023/04/04 05:50:13;;;;;;;4.30;3.78;;;;;;;0.61;71.90;102867.56;5097487;28;20380;-87
2023/04/04 05:52:38;;;;;;;8.05;4.30;;;;;;;0.65;71.39;102860.72;5087055;28;20453;-89
2023/04/04 05:55:04;;;;;;;7.93;4.43;;;;;;;0.69;72.09;102865.22;5092640;28;20082;-88
2023/04/04 05:57:29;;;;;;;12.07;4.90;;;;;;;0.94;70.88;102869.50;5096056;28;20562;-89
2023/04/04 05:59:54;;;;;;;7.47;4.50;;;;;;;1.07;70.09;102869.03;5080350;28;20039;-88
2023/04/04 06:02:20;;;;;;;6.53;4.53;;;;;;;1.17;70.48;102865.03;5080292;28;20016;-87
2023/04/04 06:04:45;;;;;;;6.82;4.93;;;;;;;1.32;70.03;102862.88;5083038;28;20179;-89
2023/04/04 06:07:10;;;;;;;9.60;4.60;;;;;;;1.31;70.69;102865.47;5092652;28;20028;-89
2023/04/04 06:09:36;;;;;;;6.82;4.65;;;;;;;1.30;71.55;102867.16;5081269;28;20028;-89
2023/04/04 06:12:03;;;;;;;7.53;4.78;;;;;;;1.28;71.71;102864.50;5080401;28;20049;-88
2023/04/04 06:14:29;;;;;;;7.40;4.97;;;;;;;1.38;71.30;102867.41;5085539;28;20028;-89
2023/04/04 06:16:55;;;;;;;10.10;5.38;;;;;;;1.41;71.38;102870.97;5082496;28;20028;-88
2023/04/04 06:19:21;;;;;;;7.43;4.95;;;;;;;1.40;71.76;102861.41;5081862;28;20036;-89
2023/04/04 06:21:46;;;;;;;7.18;4.93;;;;;;;1.50;70.73;102863.44;5078826;28;20316;-89
2023/04/04 06:24:11;;;;;;;8.40;5.40;;;;;;;1.66;70.42;102880.41;5082437;28;20103;-88
2023/04/04 06:26:37;;;;;;;9.30;5.28;;;;;;;1.77;69.67;102870.28;5079938;28;20032;-88
2023/04/04 06:29:03;;;;;;;10.40;5.40;;;;;;;1.90;69.50;102876.72;5092690;28;20020;-88
2023/04/04 06:31:28;;;;;;;10.23;5.15;;;;;;;1.99;69.13;102877.00;5076612;28;20391;-88
2023/04/04 06:33:54;;;;;;;9.70;5.50;;;;;;;2.08;68.69;102887.69;5079417;28;20016;-89
2023/04/04 06:36:20;;;;;;;6.22;4.75;;;;;;;2.10;68.73;102875.59;5083638;28;20043;-88
2023/04/04 06:38:45;;;;;;;12.20;5.97;;;;;;;2.23;68.63;102885.47;5083119;28;20034;-89
2023/04/04 06:41:11;;;;;;;8.90;5.13;;;;;;;2.33;67.85;102891.84;5076441;28;20258;-89
2023/04/04 06:43:36;;;;;;;10.68;5.65;;;;;;;2.34;67.86;102888.41;5084748;28;20093;-88
2023/04/04 06:46:01;;;;;;;8.50;5.65;;;;;;;2.47;68.21;102898.34;5077177;28;20035;-86
2023/04/04 06:48:27;;;;;;;9.30;5.40;;;;;;;2.55;66.97;102891.56;5086023;28;20471;-89
2023/04/04 06:50:52;;;;;;;8.35;5.65;;;;;;;2.67;65.65;102890.13;5088926;28;20081;-89
2023/04/04 06:53:17;;;;;;;8.45;5.43;;;;;;;2.76;65.12;102887.75;5079342;28;20023;-88
2023/04/04 06:55:43;;;;;;;8.93;6.07;;;;;;;2.94;66.09;102890.81;5079464;28;20041;-88
2023/04/04 06:58:08;;;;;;;7.32;5.53;;;;;;;3.02;65.79;102889.25;5086257;28;20027;-88
2023/04/04 07:00:33;;;;;;;9.27;5.70;;;;;;;3.14;65.67;102888.66;5081568;28;20422;-87
2023/04/04 07:02:59;;;;;;;8.27;5.22;;;;;;;3.28;64.99;102886.38;5105494;27;20052;-88
2023/04/04 07:05:25;;;;;;;7.97;5.70;;;;;;;3.44;65.52;102900.66;5098755;27;20026;-88
2023/04/04 07:07:53;;;;;;;9.57;5.32;;;;;;;3.57;66.73;102897.47;5083219;28;20305;-87
2023/04/04 07:10:19;;;;;;;7.68;5.18;;;;;;;3.68;63.94;102897.69;5081097;28;20023;-86
2023/04/04 07:12:46;;;;;;;9.25;5.80;;;;;;;3.84;65.43;102899.78;5082825;28;20155;-88
2023/04/04 07:15:11;;;;;;;9.45;5.53;;;;;;;3.96;63.51;102893.91;5083827;28;20108;-87
2023/04/04 07:17:37;;;;;;;7.45;5.20;;;;;;;4.22;65.88;102902.28;5078576;28;20146;-87
2023/04/04 07:20:04;;;;;;;12.13;5.43;;;;;;;4.38;63.39;102896.47;5086463;28;20459;-87
2023/04/04 07:22:30;;;;;;;9.00;5.25;;;;;;;4.59;61.78;102889.00;5105656;27;20008;-87
2023/04/04 07:24:55;;;;;;;7.75;5.28;;;;;;;4.69;62.58;102886.56;5083066;28;20102;-87
2023/04/04 07:27:21;;;;;;;8.25;4.95;;;;;;;4.82;61.83;102880.66;5082697;28;20526;-87
2023/04/04 07:29:46;;;;;;;6.88;5.03;;;;;;;4.93;61.28;102881.69;5085260;28;20024;-86
2023/04/04 07:32:11;;;;;;;7.88;5.20;;;;;;;5.00;60.43;102875.72;5081016;28;20032;-87
2023/04/04 07:34:36;;;;;;;7.93;4.68;;;;;;;5.13;60.58;102887.28;5084780;28;20031;-87
2023/04/04 07:37:02;;;;;;;9.05;4.70;;;;;;;5.26;61.13;102868.22;5078266;28;20119;-88
2023/04/04 07:39:27;;;;;;;8.73;4.95;;;;;;;5.49;59.59;102878.16;5077487;28;20036;-87
2023/04/04 07:41:53;;;;;;;6.55;4.93;;;;;;;5.63;59.98;102882.72;5084165;28;20020;-87
2023/04/04 07:44:18;;;;;;;10.43;5.38;;;;;;;5.67;58.09;102865.28;5093393;28;20051;-87
2023/04/04 07:46:43;;;;;;;9.05;4.78;;;;;;;5.84;58.56;102881.25;5078708;28;20051;-88
2023/04/04 07:49:09;;;;;;;6.93;4.15;;;;;;;6.00;57.43;102875.34;5075760;28;20020;-87
2023/04/04 07:51:34;;;;;;;8.25;4.65;;;;;;;6.32;56.33;102872.19;5078334;28;20099;-86
2023/04/04 07:54:01;;;;;;;8.77;4.40;;;;;;;6.47;53.99;102874.94;5072563;28;20024;-85
2023/04/04 07:56:26;;;;;;;7.93;4.45;;;;;;;6.72;55.93;102878.69;5082726;28;20028;-86
2023/04/04 07:58:52;;;;;;;8.30;4.72;;;;;;;7.07;54.69;102873.69;5090838;28;20040;-86
2023/04/04 08:01:17;;;;;;;9.50;4.32;;;;;;;7.45;52.65;102885.34;5074396;28;20649;-86
2023/04/04 08:03:42;;;;;;;11.02;4.50;;;;;;;7.94;51.70;102889.09;5074257;28;20493;-87
2023/04/04 08:06:07;;;;;;;6.72;4.32;;;;;;;8.18;50.06;102875.09;5087489;28;20024;-88
2023/04/04 08:08:33;;;;;;;8.70;4.28;;;;;;;8.27;49.39;102884.78;5083936;28;20031;-87
2023/04/04 08:10:58;;;;;;;9.13;4.13;;;;;;;8.44;49.21;102885.75;5076795;28;20060;-90
2023/04/04 08:13:23;;;;;;;7.85;3.63;;;;;;;8.50;49.85;102885.75;5086190;28;20367;-86
2023/04/04 08:15:49;;;;;;;7.82;4.43;;;;;;;8.92;49.56;102886.66;5079105;28;20024;-88
2023/04/04 08:18:14;;;;;;;5.80;3.83;;;;;;;9.27;47.26;102883.06;5069583;28;20037;-85
2023/04/04 08:20:40;;;;;;;6.22;3.55;;;;;;;9.50;49.69;102890.94;5085827;27;20533;-86
2023/04/04 08:23:05;;;;;;;5.60;3.17;;;;;;;9.90;47.31;102891.69;5069212;28;20024;-86
2023/04/04 08:25:30;;;;;;;7.47;3.47;;;;;;;10.16;45.61;102888.91;5083425;28;20031;-86
2023/04/04 08:27:55;;;;;;;4.30;2.80;;;;;;;10.14;40.86;102882.75;5079784;28;20467;-86
2023/04/04 08:30:21;;;;;;;3.65;2.47;;;;;;;10.07;41.47;102878.38;5077800;28;20028;-86
2023/04/04 08:32:47;;;;;;;5.97;2.75;;;;;;;10.65;42.04;102886.84;5069187;28;20493;-86
2023/04/04 08:35:13;;;;;;;6.70;3.45;;;;;;;11.04;44.36;102881.22;5071947;28;20482;-87
2023/04/04 08:37:43;;;;;;;4.80;2.95;;;;;;;11.30;43.56;102879.22;5072802;28;20028;-87
2023/04/04 08:40:09;;;;;;;4.45;2.63;;;;;;;11.48;41.06;102875.47;5072591;28;20543;-86
2023/04/04 08:42:35;;;;;;;4.70;2.60;;;;;;;11.81;40.13;102873.31;5077851;28;20016;-87
2023/04/04 08:45:03;;;;;;;6.47;2.42;;;;;;;12.03;37.05;102873.94;5083428;28;20024;-87
2023/04/04 08:47:30;;;;;;;3.72;2.55;;;;;;;12.17;37.53;102864.91;5082025;28;20168;-87
2023/04/04 08:49:58;;;;;;;6.85;3.13;;;;;;;12.71;38.36;102864.06;5079909;28;20154;-87
2023/04/04 08:52:26;;;;;;;6.50;2.40;;;;;;;13.23;42.36;102865.81;5083150;28;20024;-87
2023/04/04 08:54:52;;;;;;;5.03;2.28;;;;;;;13.64;36.74;102861.47;5083607;28;20031;-88
2023/04/04 08:57:18;;;;;;;5.13;2.10;;;;;;;13.88;35.51;102855.63;5078563;28;20403;-87
2023/04/04 08:59:43;;;;;;;5.78;2.20;;;;;;;14.07;37.02;102857.91;5072003;28;20028;-86
2023/04/04 09:02:08;;;;;;;6.65;2.53;;;;;;;14.35;35.82;102848.34;5074116;28;20020;-86
2023/04/04 09:04:34;;;;;;;3.97;2.20;;;;;;;14.61;35.86;102850.44;5073030;28;20016;-87
2023/04/04 09:07:03;;;;;;;4.95;2.47;;;;;;;15.01;33.44;102862.72;5085318;28;20285;-87
2023/04/04 09:09:31;;;;;;;4.80;2.10;;;;;;;15.12;31.12;102865.09;5087103;28;20190;-87
2023/04/04 09:11:59;;;;;;;3.53;2.20;;;;;;;15.39;32.01;102855.47;5085318;28;20096;-88
2023/04/04 09:14:26;;;;;;;5.43;2.47;;;;;;;15.61;30.73;102864.59;5091352;28;20028;-87
2023/04/04 09:16:52;;;;;;;4.40;2.10;;;;;;;15.50;32.54;102854.25;5087673;28;20028;-88
2023/04/04 09:19:17;;;;;;;3.72;2.40;;;;;;;15.84;31.97;102860.41;5086803;28;20094;-87
2023/04/04 09:21:47;;;;;;;3.67;2.28;;;;;;;16.31;31.58;102853.59;5085796;28;20081;-87
2023/04/04 09:24:13;;;;;;;4.32;2.35;;;;;;;16.49;31.71;102858.34;5081521;28;20165;-87
2023/04/04 09:26:50;;;;;;;4.75;2.25;;;;;;;16.66;32.11;102859.59;5079152;28;20488;-87
2023/04/04 09:29:21;;;;;;;6.00;2.40;;;;;;;17.08;30.23;102862.63;5084180;28;20035;-87
2023/04/04 09:31:48;;;;;;;4.90;2.33;;;;;;;17.43;29.34;102852.47;5074228;28;20021;-87
2023/04/04 09:34:18;;;;;;;4.18;2.60;;;;;;;17.71;30.04;102852.31;5085571;28;20547;-87
2023/04/04 09:36:44;;;;;;;4.72;2.10;;;;;;;18.04;27.02;102848.34;5075214;28;20039;-87
2023/04/04 09:39:10;;;;;;;4.40;2.10;;;;;;;18.45;25.96;102837.78;5073335;28;20510;-87
2023/04/04 09:41:39;;;;;;;3.65;2.10;;;;;;;19.08;26.88;102846.72;5085920;28;20015;-87
2023/04/04 09:44:05;;;;;;;5.03;2.13;;;;;;;19.64;25.88;102855.00;5075501;28;20495;-87
2023/04/04 09:46:31;;;;;;;3.90;1.95;;;;;;;20.13;25.57;102853.53;5090408;28;20096;-88
2023/04/04 09:48:59;;;;;;;3.65;1.90;;;;;;;19.79;22.59;102854.28;5088294;28;20052;-88
2023/04/04 09:51:34;;;;;;;4.43;2.03;;;;;;;18.71;26.50;102844.75;5081788;28;20027;-88
2023/04/04 09:54:00;;;;;;;5.20;3.17;;;;;;;18.99;23.30;102846.25;5087722;28;20033;-88
2023/04/04 09:56:26;;;;;;;5.88;2.17;;;;;;;19.25;25.41;102843.28;5081035;28;20090;-89
2023/04/04 09:58:53;;;;;;;6.13;2.20;;;;;;;19.10;25.63;102843.97;5086269;28;20024;-89
2023/04/04 10:01:18;;;;;;;5.38;2.28;;;;;;;20.15;24.64;102834.69;5090323;28;20044;-88
2023/04/04 10:03:52;;;;;;;6.70;2.40;;;;;;;20.86;26.62;102830.22;5085209;28;20016;-88
2023/04/04 10:06:17;;;;;;;5.65;2.30;;;;;;;21.16;22.85;102835.78;5085494;28;20020;-89
2023/04/04 10:08:43;;;;;;;4.50;2.55;;;;;;;21.03;20.54;102829.31;5086714;28;20032;-90
2023/04/04 10:11:08;;;;;;;2.83;1.65;;;;;;;21.25;22.58;102837.13;5090520;28;20044;-89
2023/04/04 10:13:35;;;;;;;3.95;2.25;;;;;;;20.98;21.44;102832.25;5085472;28;20043;-89
2023/04/04 10:16:03;;;;;;;5.18;2.13;;;;;;;20.85;25.22;102833.84;5094217;28;20464;-89
2023/04/04 10:18:31;;;;;;;2.88;2.10;;;;;;;21.68;23.25;102838.38;5090493;28;20028;-90
2023/04/04 10:20:58;;;;;;;2.15;1.95;;;;;;;21.09;22.54;102823.63;5082652;28;20041;-90
2023/04/04 10:23:26;;;;;;;2.78;2.10;;;;;;;21.47;23.83;102832.34;5076213;28;20043;-90
2023/04/04 10:25:52;;;;;;;3.70;2.00;;;;;;;21.83;23.01;102815.13;5081702;28;20051;-89
2023/04/04 10:28:19;;;;;;;5.18;2.30;;;;;;;21.99;22.35;102820.50;5079303;28;20483;-90
2023/04/04 10:30:48;;;;;;;5.32;2.60;;;;;;;21.81;23.04;102825.97;5085892;28;20542;-90
2023/04/04 10:33:29;;;;;;;3.45;2.13;;;;;;;22.17;23.79;102827.56;5075030;28;20491;-90
2023/04/04 10:36:00;;;;;;;3.15;2.20;;;;;;;22.25;20.81;102822.63;5086561;28;20111;-90
2023/04/04 10:38:28;;;;;;;4.50;2.30;;;;;;;21.57;20.71;102820.13;5091249;28;20494;-90
2023/04/04 10:40:59;;;;;;;3.72;2.40;;;;;;;21.30;22.16;102827.84;5082011;28;20028;-90
2023/04/04 10:43:25;;;;;;;3.40;2.05;;;;;;;21.75;22.06;102823.63;5076567;28;20093;-90
2023/04/04 10:45:51;;;;;;;3.25;2.40;;;;;;;21.96;22.40;102815.28;5098490;27;20028;-90
2023/04/04 10:48:17;;;;;;;3.30;2.10;;;;;;;21.45;21.17;102814.53;5083678;28;20352;-90
2023/04/04 10:50:43;;;;;;;4.45;2.30;;;;;;;21.03;21.00;102802.41;5078277;28;20312;-89
2023/04/04 10:53:09;;;;;;;3.75;2.40;;;;;;;20.68;22.79;102797.09;5077723;28;20027;-91
2023/04/04 10:55:35;;;;;;;5.18;2.58;;;;;;;20.02;22.50;102807.56;5078385;28;20566;-90
2023/04/04 10:58:01;;;;;;;4.82;2.28;;;;;;;19.73;22.96;102807.13;5084192;28;20021;-90
2023/04/04 11:00:27;;;;;;;6.75;2.30;;;;;;;19.76;22.90;102795.38;5079219;28;20059;-90
2023/04/04 11:02:58;;;;;;;4.65;2.40;;;;;;;19.73;22.56;102806.28;5089570;28;20066;-90
2023/04/04 11:05:39;;;;;;;3.70;2.17;;;;;;;20.19;24.21;102798.66;5092731;28;20042;-90
2023/04/04 11:08:06;;;;;;;3.35;2.08;;;;;;;20.30;23.65;102801.69;5079438;28;20387;-90
2023/04/04 11:10:40;;;;;;;4.97;2.50;;;;;;;20.45;24.20;102789.28;5088753;28;20052;-90
2023/04/04 11:13:26;;;;;;;3.50;2.33;;;;;;;20.47;25.81;102784.69;5089484;28;20121;-90
2023/04/04 11:15:58;;;;;;;5.82;2.88;;;;;;;20.39;23.20;102782.41;5090926;28;20027;-90
2023/04/04 11:18:39;;;;;;;4.18;2.22;;;;;;;20.51;25.13;102778.25;5078467;28;20039;-90
2023/04/04 11:21:17;;;;;;;3.08;2.33;;;;;;;20.15;23.08;102778.28;5084001;28;20035;-91
2023/04/04 11:23:48;;;;;;;4.80;2.22;;;;;;;20.10;24.76;102773.16;5087940;28;20077;-90
2023/04/04 11:26:34;;;;;;;5.60;2.75;;;;;;;20.28;25.65;102766.81;5078217;28;20024;-89